createdAt,value
2023-02-28T00:00:53.738Z,-0.22
2023-02-28T00:05:57.477Z,-0.18
2023-02-28T00:11:12.288Z,-0.16
2023-02-28T00:16:19.375Z,-0.17
2023-02-28T00:21:23.226Z,-0.23
2023-02-28T00:26:27.238Z,-0.24
2023-02-28T00:31:33.728Z,-0.19
2023-02-28T00:36:37.537Z,-0.19
2023-02-28T00:41:41.876Z,-0.20
2023-02-28T00:46:48.778Z,-0.18
2023-02-28T00:51:52.823Z,-0.16
2023-02-28T00:56:57.121Z,-0.15
2023-02-28T01:02:02.724Z,-0.17
2023-02-28T01:07:06.575Z,-0.17
2023-02-28T01:12:11.055Z,-0.17
2023-02-28T01:17:14.681Z,-0.16
2023-02-28T01:22:19.401Z,-0.17
2023-02-28T01:27:23.069Z,-0.13
2023-02-28T01:32:27.417Z,-0.10
2023-02-28T01:37:31.047Z,-0.09
2023-02-28T01:42:38.016Z,-0.09
2023-02-28T01:47:45.738Z,-0.09
2023-02-28T01:52:50.139Z,-0.07
2023-02-28T01:57:56.942Z,-0.05
2023-02-28T02:03:10.726Z,-0.05
2023-02-28T02:08:27.113Z,-0.05
2023-02-28T02:13:33.874Z,-0.04
2023-02-28T02:19:15.244Z,-0.05
2023-02-28T02:24:52.298Z,-0.06
2023-02-28T02:30:43.133Z,-0.12
2023-02-28T02:36:08.920Z,-0.13
2023-02-28T02:41:26.075Z,-0.10
2023-02-28T02:46:36.602Z,-0.12
2023-02-28T02:51:42.329Z,-0.14
2023-02-28T02:56:48.908Z,-0.14
2023-02-28T03:01:58.941Z,-0.16
2023-02-28T03:07:02.768Z,-0.18
2023-02-28T03:12:10.742Z,-0.18
2023-02-28T03:17:24.845Z,-0.17
2023-02-28T03:22:58.853Z,-0.19
2023-02-28T03:28:17.880Z,-0.22
2023-02-28T03:33:40.898Z,-0.21
2023-02-28T03:39:04.167Z,-0.24
2023-02-28T03:44:16.629Z,-0.30
2023-02-28T03:49:24.199Z,-0.31
2023-02-28T03:54:33.428Z,-0.32
2023-02-28T04:00:00.165Z,-0.35
2023-02-28T04:05:04.762Z,-0.39
2023-02-28T04:10:08.930Z,-0.41
2023-02-28T04:15:12.732Z,-0.39
2023-02-28T04:20:16.867Z,-0.41
2023-02-28T04:25:21.374Z,-0.43
2023-02-28T04:30:27.305Z,-0.44
2023-02-28T04:35:31.828Z,-0.42
2023-02-28T04:40:37.191Z,-0.41
2023-02-28T04:45:42.432Z,-0.41
2023-02-28T04:50:46.481Z,-0.43
2023-02-28T04:55:51.660Z,-0.42
2023-02-28T05:01:13.920Z,-0.40
2023-02-28T05:06:19.240Z,-0.38
2023-02-28T05:11:26.855Z,-0.39
2023-02-28T05:16:32.513Z,-0.40
2023-02-28T05:21:38.926Z,-0.41
2023-02-28T05:26:44.022Z,-0.42
2023-02-28T05:31:48.821Z,-0.41
2023-02-28T05:36:52.679Z,-0.40
2023-02-28T05:41:56.470Z,-0.43
2023-02-28T05:47:00.108Z,-0.45
2023-02-28T05:52:04.881Z,-0.44
2023-02-28T05:57:18.920Z,-0.40
2023-02-28T06:02:28.026Z,-0.35
2023-02-28T06:07:31.864Z,-0.27
2023-02-28T06:12:36.442Z,-0.21
2023-02-28T06:17:41.486Z,-0.14
2023-02-28T06:22:45.692Z,-0.12
2023-02-28T06:27:49.981Z,-0.12
2023-02-28T06:32:54.644Z,-0.16
2023-02-28T06:37:58.748Z,-0.18
2023-02-28T06:43:03.381Z,-0.16
2023-02-28T06:48:07.550Z,-0.11
2023-02-28T06:53:11.512Z,-0.04
2023-02-28T06:58:20.337Z,0.05
2023-02-28T07:03:25.452Z,0.15
2023-02-28T07:08:29.463Z,0.26
2023-02-28T07:13:33.225Z,0.36
2023-02-28T07:18:38.058Z,0.45
2023-02-28T07:23:43.079Z,0.55
2023-02-28T07:28:48.966Z,0.63
2023-02-28T07:33:54.941Z,0.71
2023-02-28T07:38:59.973Z,0.83
2023-02-28T07:44:04.908Z,0.94
2023-02-28T07:49:09.774Z,1.04
2023-02-28T07:54:14.054Z,1.11
2023-02-28T07:59:18.564Z,1.18
2023-02-28T08:04:23.154Z,1.27
2023-02-28T08:09:28.239Z,1.38
2023-02-28T08:14:32.249Z,1.47
2023-02-28T08:19:35.983Z,1.56
2023-02-28T08:24:41.407Z,1.67
2023-02-28T08:29:45.196Z,1.78
2023-02-28T08:34:49.278Z,1.87
2023-02-28T08:39:56.224Z,1.98
2023-02-28T08:45:00.317Z,2.12
2023-02-28T08:50:06.709Z,2.23
2023-02-28T08:55:11.419Z,2.31
2023-02-28T09:00:15.828Z,2.38
2023-02-28T09:05:19.441Z,2.43
2023-02-28T09:10:23.063Z,2.47
2023-02-28T09:15:26.605Z,2.60
2023-02-28T09:20:30.142Z,2.75
2023-02-28T09:25:34.288Z,2.84
2023-02-28T09:30:38.156Z,2.92
2023-02-28T09:35:41.855Z,2.98
2023-02-28T09:41:14.669Z,3.04
2023-02-28T09:46:42.082Z,3.18
2023-02-28T09:51:50.699Z,3.24
2023-02-28T09:56:56.872Z,3.22
2023-02-28T10:02:39.524Z,3.15
2023-02-28T10:08:00.913Z,3.02
2023-02-28T10:13:08.528Z,2.96
2023-02-28T10:18:20.371Z,2.93
2023-02-28T10:23:26.730Z,3.03
2023-02-28T10:28:32.226Z,3.18
2023-02-28T10:33:37.223Z,3.28
2023-02-28T10:38:42.257Z,3.31
2023-02-28T10:43:49.202Z,3.43
2023-02-28T10:49:04.476Z,3.59
2023-02-28T10:54:18.022Z,3.82
2023-02-28T10:59:32.354Z,3.92
2023-02-28T11:04:39.234Z,3.95
2023-02-28T11:09:44.636Z,4.10
2023-02-28T11:14:51.589Z,4.16
2023-02-28T11:19:57.816Z,4.13
2023-02-28T11:25:03.890Z,4.16
2023-02-28T11:30:43.462Z,4.09
2023-02-28T11:35:50.211Z,3.83
2023-02-28T11:40:59.950Z,3.61
2023-02-28T11:46:42.970Z,3.58
2023-02-28T11:51:51.468Z,3.88
2023-02-28T11:57:02.178Z,4.14
2023-02-28T12:02:35.448Z,4.25
2023-02-28T12:07:51.242Z,4.38
2023-02-28T12:13:13.793Z,4.49
2023-02-28T12:19:22.456Z,4.52
2023-02-28T12:24:50.593Z,4.50
2023-02-28T12:30:20.317Z,4.50
2023-02-28T12:35:28.174Z,4.36
2023-02-28T12:40:56.305Z,4.30
2023-02-28T12:46:05.919Z,4.36
2023-02-28T12:51:09.871Z,4.41
2023-02-28T12:56:39.674Z,4.40
2023-02-28T13:02:16.145Z,4.45
2023-02-28T13:07:34.898Z,4.57
2023-02-28T13:12:52.410Z,4.59
2023-02-28T13:17:58.567Z,4.62
2023-02-28T13:23:06.947Z,4.61
2023-02-28T13:28:14.800Z,4.62
2023-02-28T13:34:17.058Z,4.68
2023-02-28T13:39:56.619Z,4.87
2023-02-28T13:45:03.372Z,4.93
2023-02-28T13:50:30.680Z,4.95
2023-02-28T13:56:19.625Z,4.99
2023-02-28T14:01:47.115Z,4.94
2023-02-28T14:06:56.461Z,4.84
2023-02-28T14:12:38.862Z,4.77
2023-02-28T14:17:42.471Z,4.73
2023-02-28T14:22:56.533Z,4.66
2023-02-28T14:28:10.538Z,4.63
2023-02-28T14:33:51.668Z,4.55
2023-02-28T14:39:13.520Z,4.45
2023-02-28T14:44:28.634Z,4.40
2023-02-28T14:49:35.960Z,4.37
2023-02-28T14:54:40.348Z,4.37
2023-02-28T14:59:44.159Z,4.35
2023-02-28T15:05:00.384Z,4.34
2023-02-28T15:10:44.600Z,4.24
2023-02-28T15:16:03.088Z,4.16
2023-02-28T15:21:51.932Z,4.09
2023-02-28T15:27:01.704Z,4.00
2023-02-28T15:32:09.470Z,3.93
2023-02-28T15:37:35.352Z,3.88
2023-02-28T15:42:39.552Z,3.81
2023-02-28T15:47:47.625Z,3.72
2023-02-28T15:52:51.953Z,3.62
2023-02-28T15:58:00.131Z,3.51
2023-02-28T16:03:24.224Z,3.36
2023-02-28T16:08:28.945Z,3.16
2023-02-28T16:13:33.898Z,2.96
2023-02-28T16:18:40.596Z,2.76
2023-02-28T16:23:44.355Z,2.59
2023-02-28T16:28:48.491Z,2.41
2023-02-28T16:33:56.882Z,2.21
2023-02-28T16:39:08.584Z,2.00
2023-02-28T16:44:36.989Z,1.83
2023-02-28T16:49:52.383Z,1.63
2023-02-28T16:55:03.363Z,1.46
2023-02-28T17:00:13.939Z,1.32
2023-02-28T17:05:18.681Z,1.17
2023-02-28T17:10:25.512Z,1.03
2023-02-28T17:15:29.277Z,0.88
2023-02-28T17:20:33.769Z,0.74
2023-02-28T17:25:38.235Z,0.61
2023-02-28T17:30:48.971Z,0.46
2023-02-28T17:35:53.915Z,0.32
2023-02-28T17:40:59.357Z,0.25
2023-02-28T17:46:03.656Z,0.21
2023-02-28T17:51:11.406Z,0.16
2023-02-28T17:56:29.257Z,0.06
2023-02-28T18:01:34.023Z,-0.03
2023-02-28T18:06:53.274Z,-0.13
2023-02-28T18:11:59.134Z,-0.20
2023-02-28T18:17:09.216Z,-0.25
2023-02-28T18:22:14.152Z,-0.28
2023-02-28T18:27:23.819Z,-0.34
2023-02-28T18:32:33.498Z,-0.38
2023-02-28T18:37:44.277Z,-0.42
2023-02-28T18:43:00.522Z,-0.51
2023-02-28T18:48:13.781Z,-0.62
2023-02-28T18:53:25.884Z,-0.71
2023-02-28T18:58:34.693Z,-0.83
2023-02-28T19:03:47.269Z,-0.95
2023-02-28T19:08:58.752Z,-1.05
2023-02-28T19:14:05.534Z,-1.12
2023-02-28T19:19:12.337Z,-1.21
2023-02-28T19:24:20.287Z,-1.30
2023-02-28T19:29:27.447Z,-1.35
2023-02-28T19:34:35.566Z,-1.40
2023-02-28T19:39:49.182Z,-1.46
2023-02-28T19:45:00.567Z,-1.47
2023-02-28T19:50:07.416Z,-1.51
2023-02-28T19:55:14.443Z,-1.54
2023-02-28T20:00:25.794Z,-1.55
2023-02-28T20:05:33.260Z,-1.60
2023-02-28T20:10:42.191Z,-1.58
2023-02-28T20:15:47.523Z,-1.51
2023-02-28T20:20:55.131Z,-1.55
2023-02-28T20:26:02.567Z,-1.62
2023-02-28T20:31:20.933Z,-1.71
2023-02-28T20:36:27.764Z,-1.86
2023-02-28T20:41:35.523Z,-1.97
2023-02-28T20:46:52.436Z,-2.09
2023-02-28T20:52:01.231Z,-2.22
2023-02-28T20:57:10.072Z,-2.30
2023-02-28T21:02:19.573Z,-2.41
2023-02-28T21:07:26.529Z,-2.60
2023-02-28T21:12:33.254Z,-2.83
2023-02-28T21:17:37.975Z,-2.98
2023-02-28T21:22:42.533Z,-3.01
2023-02-28T21:27:46.351Z,-3.01
2023-02-28T21:32:51.648Z,-3.10
2023-02-28T21:37:57.412Z,-3.18
2023-02-28T21:43:01.248Z,-3.19
2023-02-28T21:48:05.208Z,-3.18
2023-02-28T21:53:13.342Z,-3.18
2023-02-28T21:58:17.276Z,-3.15
2023-02-28T22:03:24.697Z,-3.12
2023-02-28T22:08:28.725Z,-3.11
2023-02-28T22:13:34.180Z,-3.09
2023-02-28T22:23:56.832Z,-3.15
2023-02-28T22:29:01.531Z,-3.18
2023-02-28T22:34:08.758Z,-3.21
2023-02-28T22:39:12.782Z,-3.19
2023-02-28T22:44:19.474Z,-3.14
2023-02-28T22:49:25.462Z,-3.16
2023-02-28T22:54:29.795Z,-3.29
2023-02-28T22:59:34.133Z,-3.45
2023-02-28T23:05:34.423Z,-3.59
2023-02-28T23:10:42.254Z,-3.72
2023-02-28T23:15:48.343Z,-3.79
2023-02-28T23:20:52.272Z,-3.83
2023-02-28T23:25:56.143Z,-3.86
2023-02-28T23:31:05.073Z,-3.93
2023-02-28T23:36:16.033Z,-4.01
2023-02-28T23:41:22.548Z,-4.00
2023-02-28T23:46:28.889Z,-3.95
2023-02-28T23:51:33.263Z,-3.92
2023-02-28T23:56:37.248Z,-3.93
